sensor_id;sensor_type;location;lat;lon;timestamp;pressure;altitude;pressure_sealevel;temperature;humidity
79077;BME280;68477;42.698;23.342;2024-01-30T00:01:41;97358.22;;;-0.89;71.42
79077;BME280;68477;42.698;23.342;2024-01-30T00:04:06;97351.25;;;-0.86;70.76
79077;BME280;68477;42.698;23.342;2024-01-30T00:06:32;97350.47;;;-0.89;71.00
79077;BME280;68477;42.698;23.342;2024-01-30T00:08:58;97345.66;;;-0.99;71.64
79077;BME280;68477;42.698;23.342;2024-01-30T00:11:23;97356.25;;;-0.82;70.19
79077;BME280;68477;42.698;23.342;2024-01-30T00:13:51;97350.03;;;-1.29;72.40
79077;BME280;68477;42.698;23.342;2024-01-30T00:16:25;97351.72;;;-1.00;71.73
79077;BME280;68477;42.698;23.342;2024-01-30T00:18:51;97356.47;;;-0.88;71.04
79077;BME280;68477;42.698;23.342;2024-01-30T00:21:18;97355.19;;;-1.01;71.23
79077;BME280;68477;42.698;23.342;2024-01-30T00:23:43;97359.69;;;-1.08;71.65
79077;BME280;68477;42.698;23.342;2024-01-30T00:26:09;97359.94;;;-0.89;71.41
79077;BME280;68477;42.698;23.342;2024-01-30T00:28:35;97353.69;;;-0.57;68.97
79077;BME280;68477;42.698;23.342;2024-01-30T00:31:00;97357.72;;;-1.00;70.45
79077;BME280;68477;42.698;23.342;2024-01-30T00:33:26;97352.09;;;-0.86;70.50
79077;BME280;68477;42.698;23.342;2024-01-30T00:35:51;97357.28;;;-0.61;70.34
79077;BME280;68477;42.698;23.342;2024-01-30T00:38:17;97352.44;;;-0.97;70.39
79077;BME280;68477;42.698;23.342;2024-01-30T00:40:42;97357.59;;;-0.97;69.79
79077;BME280;68477;42.698;23.342;2024-01-30T00:43:08;97359.41;;;-1.27;71.55
79077;BME280;68477;42.698;23.342;2024-01-30T00:45:34;97348.31;;;-1.02;71.34
79077;BME280;68477;42.698;23.342;2024-01-30T00:47:59;97359.84;;;-1.12;71.77
79077;BME280;68477;42.698;23.342;2024-01-30T00:50:25;97368.44;;;-1.12;71.64
79077;BME280;68477;42.698;23.342;2024-01-30T00:52:50;97355.53;;;-1.12;71.54
79077;BME280;68477;42.698;23.342;2024-01-30T00:55:16;97359.22;;;-1.47;73.43
79077;BME280;68477;42.698;23.342;2024-01-30T00:57:41;97359.69;;;-1.34;72.73
79077;BME280;68477;42.698;23.342;2024-01-30T01:00:07;97359.28;;;-1.22;71.11
79077;BME280;68477;42.698;23.342;2024-01-30T01:02:37;97355.41;;;-1.63;73.94
79077;BME280;68477;42.698;23.342;2024-01-30T01:05:06;97354.97;;;-1.50;73.45
79077;BME280;68477;42.698;23.342;2024-01-30T01:07:32;97360.56;;;-1.35;72.70
79077;BME280;68477;42.698;23.342;2024-01-30T01:09:58;97357.72;;;-1.28;71.20
79077;BME280;68477;42.698;23.342;2024-01-30T01:12:23;97355.69;;;-1.44;71.59
79077;BME280;68477;42.698;23.342;2024-01-30T01:14:49;97355.91;;;-1.52;72.55
79077;BME280;68477;42.698;23.342;2024-01-30T01:17:15;97358.78;;;-1.61;72.84
79077;BME280;68477;42.698;23.342;2024-01-30T01:19:40;97370.75;;;-1.88;73.44
79077;BME280;68477;42.698;23.342;2024-01-30T01:22:05;97360.75;;;-1.69;74.56
79077;BME280;68477;42.698;23.342;2024-01-30T01:24:31;97364.78;;;-1.61;73.78
79077;BME280;68477;42.698;23.342;2024-01-30T01:26:58;97362.81;;;-1.81;73.69
79077;BME280;68477;42.698;23.342;2024-01-30T01:29:24;97365.66;;;-1.62;73.33
79077;BME280;68477;42.698;23.342;2024-01-30T01:31:54;97367.41;;;-1.62;73.24
79077;BME280;68477;42.698;23.342;2024-01-30T01:34:21;97361.81;;;-1.21;72.46
79077;BME280;68477;42.698;23.342;2024-01-30T01:36:49;97366.97;;;-1.47;72.72
79077;BME280;68477;42.698;23.342;2024-01-30T01:39:14;97369.13;;;-1.07;71.82
79077;BME280;68477;42.698;23.342;2024-01-30T01:41:41;97375.28;;;-1.11;70.48
79077;BME280;68477;42.698;23.342;2024-01-30T01:44:07;97370.00;;;-1.34;71.76
79077;BME280;68477;42.698;23.342;2024-01-30T01:46:34;97369.06;;;-1.32;72.41
79077;BME280;68477;42.698;23.342;2024-01-30T01:49:02;97361.41;;;-1.63;73.48
79077;BME280;68477;42.698;23.342;2024-01-30T01:51:29;97364.78;;;-1.61;71.92
79077;BME280;68477;42.698;23.342;2024-01-30T01:53:57;97361.09;;;-1.24;71.47
79077;BME280;68477;42.698;23.342;2024-01-30T01:56:24;97362.44;;;-1.40;72.06
79077;BME280;68477;42.698;23.342;2024-01-30T01:58:51;97366.03;;;-1.74;74.14
79077;BME280;68477;42.698;23.342;2024-01-30T02:01:20;97367.81;;;-1.48;72.94
79077;BME280;68477;42.698;23.342;2024-01-30T02:03:47;97372.38;;;-1.56;72.80
79077;BME280;68477;42.698;23.342;2024-01-30T02:06:16;97374.44;;;-1.67;73.04
79077;BME280;68477;42.698;23.342;2024-01-30T02:08:41;97372.13;;;-1.77;73.88
79077;BME280;68477;42.698;23.342;2024-01-30T02:11:07;97375.16;;;-1.92;75.06
79077;BME280;68477;42.698;23.342;2024-01-30T02:13:33;97375.03;;;-1.58;74.00
79077;BME280;68477;42.698;23.342;2024-01-30T02:15:59;97373.09;;;-1.51;74.42
79077;BME280;68477;42.698;23.342;2024-01-30T02:18:26;97372.59;;;-1.64;74.40
79077;BME280;68477;42.698;23.342;2024-01-30T02:20:53;97370.81;;;-1.62;74.16
79077;BME280;68477;42.698;23.342;2024-01-30T02:23:20;97366.38;;;-1.29;72.14
79077;BME280;68477;42.698;23.342;2024-01-30T02:25:45;97368.56;;;-1.17;71.48
79077;BME280;68477;42.698;23.342;2024-01-30T02:28:12;97361.78;;;-1.19;72.07
79077;BME280;68477;42.698;23.342;2024-01-30T02:30:39;97355.03;;;-0.97;71.09
79077;BME280;68477;42.698;23.342;2024-01-30T02:33:04;97366.81;;;-1.16;71.90
79077;BME280;68477;42.698;23.342;2024-01-30T02:35:30;97366.38;;;-1.29;71.14
79077;BME280;68477;42.698;23.342;2024-01-30T02:37:55;97362.59;;;-0.92;71.25
79077;BME280;68477;42.698;23.342;2024-01-30T02:40:21;97366.34;;;-0.74;70.48
79077;BME280;68477;42.698;23.342;2024-01-30T02:42:46;97363.91;;;-1.05;71.92
79077;BME280;68477;42.698;23.342;2024-01-30T02:45:12;97377.44;;;-1.25;70.74
79077;BME280;68477;42.698;23.342;2024-01-30T02:47:39;97359.84;;;-0.86;69.45
79077;BME280;68477;42.698;23.342;2024-01-30T02:50:05;97357.50;;;-0.94;69.18
79077;BME280;68477;42.698;23.342;2024-01-30T02:52:30;97368.34;;;-1.09;69.86
79077;BME280;68477;42.698;23.342;2024-01-30T02:54:56;97365.25;;;-1.20;70.16
79077;BME280;68477;42.698;23.342;2024-01-30T02:57:21;97372.19;;;-1.22;70.79
79077;BME280;68477;42.698;23.342;2024-01-30T02:59:47;97369.03;;;-0.77;69.47
79077;BME280;68477;42.698;23.342;2024-01-30T03:02:12;97358.88;;;-0.83;69.62
79077;BME280;68477;42.698;23.342;2024-01-30T03:04:41;97359.84;;;-0.61;69.13
79077;BME280;68477;42.698;23.342;2024-01-30T03:07:07;97355.34;;;-0.81;69.17
79077;BME280;68477;42.698;23.342;2024-01-30T03:09:32;97350.09;;;-1.04;70.57
79077;BME280;68477;42.698;23.342;2024-01-30T03:11:58;97356.66;;;-1.49;71.31
79077;BME280;68477;42.698;23.342;2024-01-30T03:14:24;97360.81;;;-1.43;71.06
79077;BME280;68477;42.698;23.342;2024-01-30T03:16:49;97355.19;;;-1.01;69.33
79077;BME280;68477;42.698;23.342;2024-01-30T03:19:15;97354.19;;;-1.25;70.31
79077;BME280;68477;42.698;23.342;2024-01-30T03:21:42;97349.63;;;-1.43;69.33
79077;BME280;68477;42.698;23.342;2024-01-30T03:24:07;97349.25;;;-1.31;69.17
79077;BME280;68477;42.698;23.342;2024-01-30T03:26:33;97355.16;;;-1.28;70.98
79077;BME280;68477;42.698;23.342;2024-01-30T03:28:58;97351.72;;;-1.00;70.00
79077;BME280;68477;42.698;23.342;2024-01-30T03:31:24;97356.44;;;-1.41;70.04
79077;BME280;68477;42.698;23.342;2024-01-30T03:33:50;97353.34;;;-1.52;69.24
79077;BME280;68477;42.698;23.342;2024-01-30T03:36:16;97344.69;;;-0.97;69.22
79077;BME280;68477;42.698;23.342;2024-01-30T03:38:41;97352.19;;;-1.15;68.21
79077;BME280;68477;42.698;23.342;2024-01-30T03:41:08;97345.84;;;-1.05;67.64
79077;BME280;68477;42.698;23.342;2024-01-30T03:43:35;97346.22;;;-1.18;68.82
79077;BME280;68477;42.698;23.342;2024-01-30T03:46:01;97344.94;;;-0.78;67.95
79077;BME280;68477;42.698;23.342;2024-01-30T03:48:27;97346.94;;;-1.12;67.87
79077;BME280;68477;42.698;23.342;2024-01-30T03:50:53;97341.88;;;-0.89;68.26
79077;BME280;68477;42.698;23.342;2024-01-30T03:53:18;97337.94;;;-1.01;66.68
79077;BME280;68477;42.698;23.342;2024-01-30T03:55:44;97337.25;;;-1.06;68.12
79077;BME280;68477;42.698;23.342;2024-01-30T03:58:09;97334.72;;;-1.07;67.33
79077;BME280;68477;42.698;23.342;2024-01-30T04:00:35;97337.19;;;-1.31;67.66
79077;BME280;68477;42.698;23.342;2024-01-30T04:03:00;97331.25;;;-1.33;67.73
79077;BME280;68477;42.698;23.342;2024-01-30T04:05:26;97339.34;;;-1.73;68.58
79077;BME280;68477;42.698;23.342;2024-01-30T04:07:51;97328.84;;;-1.39;69.18
79077;BME280;68477;42.698;23.342;2024-01-30T04:10:17;97332.84;;;-1.57;69.04
79077;BME280;68477;42.698;23.342;2024-01-30T04:12:42;97333.13;;;-1.11;67.62
79077;BME280;68477;42.698;23.342;2024-01-30T04:15:08;97338.47;;;-1.44;68.30
79077;BME280;68477;42.698;23.342;2024-01-30T04:17:34;97333.03;;;-1.35;68.20
79077;BME280;68477;42.698;23.342;2024-01-30T04:19:59;97334.09;;;-1.42;69.87
79077;BME280;68477;42.698;23.342;2024-01-30T04:22:25;97335.09;;;-1.46;68.77
79077;BME280;68477;42.698;23.342;2024-01-30T04:24:50;97339.50;;;-1.78;70.26
79077;BME280;68477;42.698;23.342;2024-01-30T04:27:16;97336.53;;;-1.65;69.63
79077;BME280;68477;42.698;23.342;2024-01-30T04:29:41;97340.50;;;-1.54;68.62
79077;BME280;68477;42.698;23.342;2024-01-30T04:32:09;97354.34;;;-1.56;68.14
79077;BME280;68477;42.698;23.342;2024-01-30T04:34:36;97350.09;;;-1.59;68.72
79077;BME280;68477;42.698;23.342;2024-01-30T04:37:01;97344.09;;;-1.59;69.68
79077;BME280;68477;42.698;23.342;2024-01-30T04:39:27;97352.81;;;-1.93;70.36
79077;BME280;68477;42.698;23.342;2024-01-30T04:41:52;97353.72;;;-1.64;70.11
79077;BME280;68477;42.698;23.342;2024-01-30T04:44:18;97361.28;;;-1.58;70.15
79077;BME280;68477;42.698;23.342;2024-01-30T04:46:43;97355.41;;;-1.35;68.94
79077;BME280;68477;42.698;23.342;2024-01-30T04:49:09;97346.38;;;-1.50;69.53
79077;BME280;68477;42.698;23.342;2024-01-30T04:51:34;97359.59;;;-1.61;71.03
79077;BME280;68477;42.698;23.342;2024-01-30T04:54:00;97373.59;;;-1.68;70.50
79077;BME280;68477;42.698;23.342;2024-01-30T04:56:25;97370.78;;;-1.60;70.50
79077;BME280;68477;42.698;23.342;2024-01-30T04:58:51;97374.50;;;-1.69;70.39
79077;BME280;68477;42.698;23.342;2024-01-30T05:01:16;97373.34;;;-1.60;68.94
79077;BME280;68477;42.698;23.342;2024-01-30T05:03:42;97372.84;;;-1.43;68.77
79077;BME280;68477;42.698;23.342;2024-01-30T05:06:08;97370.72;;;-1.59;69.44
79077;BME280;68477;42.698;23.342;2024-01-30T05:08:33;97377.75;;;-1.93;69.48
79077;BME280;68477;42.698;23.342;2024-01-30T05:11:07;97382.34;;;-1.73;69.32
79077;BME280;68477;42.698;23.342;2024-01-30T05:13:33;97377.66;;;-1.61;68.49
79077;BME280;68477;42.698;23.342;2024-01-30T05:15:58;97368.66;;;-1.48;70.03
79077;BME280;68477;42.698;23.342;2024-01-30T05:18:24;97370.72;;;-1.59;69.81
79077;BME280;68477;42.698;23.342;2024-01-30T05:20:50;97374.66;;;-1.75;70.10
79077;BME280;68477;42.698;23.342;2024-01-30T05:23:16;97378.50;;;-1.60;69.61
79077;BME280;68477;42.698;23.342;2024-01-30T05:25:42;97376.91;;;-1.92;70.42
79077;BME280;68477;42.698;23.342;2024-01-30T05:28:07;97375.22;;;-1.36;70.03
79077;BME280;68477;42.698;23.342;2024-01-30T05:30:33;97379.38;;;-1.89;70.90
79077;BME280;68477;42.698;23.342;2024-01-30T05:32:58;97379.72;;;-1.72;71.30
79077;BME280;68477;42.698;23.342;2024-01-30T05:35:24;97378.19;;;-1.78;69.93
79077;BME280;68477;42.698;23.342;2024-01-30T05:37:50;97381.38;;;-1.99;71.08
79077;BME280;68477;42.698;23.342;2024-01-30T05:40:15;97380.13;;;-1.86;71.42
79077;BME280;68477;42.698;23.342;2024-01-30T05:42:41;97382.78;;;-1.59;69.59
79077;BME280;68477;42.698;23.342;2024-01-30T05:45:10;97383.22;;;-1.45;68.64
79077;BME280;68477;42.698;23.342;2024-01-30T05:47:35;97383.72;;;-1.62;69.31
79077;BME280;68477;42.698;23.342;2024-01-30T05:50:01;97374.50;;;-1.69;69.02
79077;BME280;68477;42.698;23.342;2024-01-30T05:52:26;97379.13;;;-2.11;70.69
79077;BME280;68477;42.698;23.342;2024-01-30T05:54:52;97378.81;;;-1.69;69.75
79077;BME280;68477;42.698;23.342;2024-01-30T05:57:17;97376.53;;;-1.80;70.16
79077;BME280;68477;42.698;23.342;2024-01-30T05:59:44;97374.44;;;-1.97;69.57
79077;BME280;68477;42.698;23.342;2024-01-30T06:02:12;97381.38;;;-2.30;69.92
79077;BME280;68477;42.698;23.342;2024-01-30T06:04:37;97381.63;;;-2.08;70.31
79077;BME280;68477;42.698;23.342;2024-01-30T06:07:03;97383.91;;;-1.97;70.47
79077;BME280;68477;42.698;23.342;2024-01-30T06:09:30;97382.91;;;-1.92;72.11
79077;BME280;68477;42.698;23.342;2024-01-30T06:11:56;97391.94;;;-2.08;73.16
79077;BME280;68477;42.698;23.342;2024-01-30T06:14:21;97392.91;;;-2.12;72.04
79077;BME280;68477;42.698;23.342;2024-01-30T06:16:47;97388.09;;;-1.64;69.10
79077;BME280;68477;42.698;23.342;2024-01-30T06:19:12;97395.03;;;-1.38;67.72
79077;BME280;68477;42.698;23.342;2024-01-30T06:21:38;97399.41;;;-1.12;66.69
79077;BME280;68477;42.698;23.342;2024-01-30T06:24:04;97397.69;;;-0.85;65.53
79077;BME280;68477;42.698;23.342;2024-01-30T06:26:29;97390.44;;;-0.74;64.37
79077;BME280;68477;42.698;23.342;2024-01-30T06:28:55;97381.31;;;-0.09;62.39
79077;BME280;68477;42.698;23.342;2024-01-30T06:31:21;97386.16;;;-0.25;62.00
79077;BME280;68477;42.698;23.342;2024-01-30T06:33:47;97394.59;;;0.52;60.67
79077;BME280;68477;42.698;23.342;2024-01-30T06:36:13;97385.72;;;0.36;60.70
79077;BME280;68477;42.698;23.342;2024-01-30T06:38:39;97385.94;;;0.75;58.93
79077;BME280;68477;42.698;23.342;2024-01-30T06:41:04;97387.34;;;0.15;59.33
79077;BME280;68477;42.698;23.342;2024-01-30T06:43:30;97393.88;;;0.25;59.17
79077;BME280;68477;42.698;23.342;2024-01-30T06:45:55;97395.47;;;0.51;57.68
79077;BME280;68477;42.698;23.342;2024-01-30T06:48:21;97387.03;;;0.24;59.65
79077;BME280;68477;42.698;23.342;2024-01-30T06:50:46;97387.41;;;0.37;58.99
79077;BME280;68477;42.698;23.342;2024-01-30T06:53:13;97390.31;;;0.04;61.39
79077;BME280;68477;42.698;23.342;2024-01-30T06:55:38;97397.13;;;0.30;59.84
79077;BME280;68477;42.698;23.342;2024-01-30T06:58:04;97396.44;;;0.48;59.07
79077;BME280;68477;42.698;23.342;2024-01-30T07:00:29;97397.25;;;0.27;58.28
79077;BME280;68477;42.698;23.342;2024-01-30T07:02:55;97397.34;;;0.47;58.03
79077;BME280;68477;42.698;23.342;2024-01-30T07:05:22;97401.91;;;0.41;58.83
79077;BME280;68477;42.698;23.342;2024-01-30T07:07:48;97399.53;;;0.11;57.96
79077;BME280;68477;42.698;23.342;2024-01-30T07:10:13;97393.34;;;0.39;57.41
79077;BME280;68477;42.698;23.342;2024-01-30T07:12:39;97400.44;;;0.34;58.47
79077;BME280;68477;42.698;23.342;2024-01-30T07:15:05;97398.13;;;0.49;58.81
79077;BME280;68477;42.698;23.342;2024-01-30T07:17:34;97402.56;;;0.69;57.24
79077;BME280;68477;42.698;23.342;2024-01-30T07:20:00;97403.50;;;0.67;57.21
79077;BME280;68477;42.698;23.342;2024-01-30T07:22:25;97398.63;;;0.59;57.69
79077;BME280;68477;42.698;23.342;2024-01-30T07:24:51;97404.06;;;0.97;55.65
79077;BME280;68477;42.698;23.342;2024-01-30T07:27:17;97394.34;;;1.02;54.89
79077;BME280;68477;42.698;23.342;2024-01-30T07:29:43;97389.50;;;0.72;55.78
79077;BME280;68477;42.698;23.342;2024-01-30T07:32:09;97389.78;;;1.51;53.12
79077;BME280;68477;42.698;23.342;2024-01-30T07:34:34;97388.16;;;1.48;52.80
79077;BME280;68477;42.698;23.342;2024-01-30T07:37:02;97394.56;;;1.39;51.96
79077;BME280;68477;42.698;23.342;2024-01-30T07:39:28;97386.53;;;1.86;51.52
79077;BME280;68477;42.698;23.342;2024-01-30T07:41:54;97394.47;;;1.83;52.05
79077;BME280;68477;42.698;23.342;2024-01-30T07:44:20;97391.78;;;1.64;52.31
79077;BME280;68477;42.698;23.342;2024-01-30T07:46:45;97393.75;;;1.59;52.47
79077;BME280;68477;42.698;23.342;2024-01-30T07:49:11;97390.34;;;1.98;50.21
79077;BME280;68477;42.698;23.342;2024-01-30T07:51:36;97385.16;;;1.57;53.13
79077;BME280;68477;42.698;23.342;2024-01-30T07:54:02;97388.97;;;2.10;50.45
79077;BME280;68477;42.698;23.342;2024-01-30T07:56:27;97395.59;;;1.96;51.24
79077;BME280;68477;42.698;23.342;2024-01-30T07:58:53;97392.47;;;2.09;49.69
79077;BME280;68477;42.698;23.342;2024-01-30T08:01:19;97400.72;;;1.98;50.59
79077;BME280;68477;42.698;23.342;2024-01-30T08:03:45;97387.13;;;2.51;50.30
79077;BME280;68477;42.698;23.342;2024-01-30T08:06:11;97386.16;;;1.75;52.61
79077;BME280;68477;42.698;23.342;2024-01-30T08:08:36;97385.06;;;2.76;48.38
79077;BME280;68477;42.698;23.342;2024-01-30T08:11:03;97383.03;;;3.36;47.73
79077;BME280;68477;42.698;23.342;2024-01-30T08:13:29;97388.03;;;3.41;49.66
79077;BME280;68477;42.698;23.342;2024-01-30T08:15:54;97382.88;;;3.91;48.21
79077;BME280;68477;42.698;23.342;2024-01-30T08:18:20;97385.84;;;4.34;45.50
79077;BME280;68477;42.698;23.342;2024-01-30T08:20:45;97385.81;;;2.78;49.35
79077;BME280;68477;42.698;23.342;2024-01-30T08:23:11;97385.56;;;3.55;48.49
79077;BME280;68477;42.698;23.342;2024-01-30T08:25:36;97390.16;;;3.33;48.84
79077;BME280;68477;42.698;23.342;2024-01-30T08:28:02;97382.41;;;3.48;46.03
79077;BME280;68477;42.698;23.342;2024-01-30T08:30:28;97395.81;;;4.26;46.62
79077;BME280;68477;42.698;23.342;2024-01-30T08:32:53;97388.78;;;3.43;46.14
79077;BME280;68477;42.698;23.342;2024-01-30T08:35:19;97390.50;;;4.12;44.60
79077;BME280;68477;42.698;23.342;2024-01-30T08:37:44;97391.00;;;5.14;43.18
79077;BME280;68477;42.698;23.342;2024-01-30T08:40:10;97393.19;;;4.75;43.59
79077;BME280;68477;42.698;23.342;2024-01-30T08:42:36;97395.03;;;3.91;44.97
79077;BME280;68477;42.698;23.342;2024-01-30T08:45:01;97398.03;;;2.95;46.38
79077;BME280;68477;42.698;23.342;2024-01-30T08:47:27;97396.47;;;3.10;47.59
79077;BME280;68477;42.698;23.342;2024-01-30T08:49:53;97406.50;;;3.35;46.57
79077;BME280;68477;42.698;23.342;2024-01-30T08:52:18;97404.34;;;4.45;46.16
79077;BME280;68477;42.698;23.342;2024-01-30T08:54:44;97389.03;;;5.34;43.84
79077;BME280;68477;42.698;23.342;2024-01-30T08:57:09;97403.91;;;4.37;45.30
79077;BME280;68477;42.698;23.342;2024-01-30T08:59:35;97404.88;;;5.61;42.25
79077;BME280;68477;42.698;23.342;2024-01-30T09:02:00;97400.06;;;5.07;44.49
79077;BME280;68477;42.698;23.342;2024-01-30T09:04:26;97404.72;;;5.02;44.84
79077;BME280;68477;42.698;23.342;2024-01-30T09:06:51;97400.66;;;4.16;48.11
79077;BME280;68477;42.698;23.342;2024-01-30T09:09:17;97395.84;;;5.66;46.86
79077;BME280;68477;42.698;23.342;2024-01-30T09:11:43;97396.28;;;4.17;48.39
79077;BME280;68477;42.698;23.342;2024-01-30T09:14:09;97403.88;;;4.21;48.28
79077;BME280;68477;42.698;23.342;2024-01-30T09:16:34;97397.72;;;3.37;49.41
79077;BME280;68477;42.698;23.342;2024-01-30T09:19:00;97399.91;;;3.10;49.63
79077;BME280;68477;42.698;23.342;2024-01-30T09:21:25;97394.13;;;3.22;49.22
79077;BME280;68477;42.698;23.342;2024-01-30T09:24:01;97396.38;;;2.75;51.40
79077;BME280;68477;42.698;23.342;2024-01-30T09:26:27;97391.78;;;2.99;52.09
79077;BME280;68477;42.698;23.342;2024-01-30T09:28:52;97398.88;;;2.96;51.25
79077;BME280;68477;42.698;23.342;2024-01-30T09:31:18;97392.00;;;2.19;52.65
79077;BME280;68477;42.698;23.342;2024-01-30T09:33:43;97387.63;;;3.83;48.78
79077;BME280;68477;42.698;23.342;2024-01-30T09:36:11;97390.59;;;4.26;49.99
79077;BME280;68477;42.698;23.342;2024-01-30T09:38:40;97381.75;;;4.93;47.62
79077;BME280;68477;42.698;23.342;2024-01-30T09:41:09;97380.53;;;4.35;47.93
79077;BME280;68477;42.698;23.342;2024-01-30T09:43:38;97386.63;;;4.83;46.85
79077;BME280;68477;42.698;23.342;2024-01-30T09:46:10;97381.44;;;4.99;46.55
79077;BME280;68477;42.698;23.342;2024-01-30T09:48:37;97379.47;;;4.87;48.00
79077;BME280;68477;42.698;23.342;2024-01-30T09:51:03;97373.06;;;5.54;44.40
79077;BME280;68477;42.698;23.342;2024-01-30T09:53:29;97371.06;;;5.13;46.88
79077;BME280;68477;42.698;23.342;2024-01-30T09:55:54;97371.91;;;5.14;45.98
79077;BME280;68477;42.698;23.342;2024-01-30T09:58:20;97365.41;;;5.21;45.50
79077;BME280;68477;42.698;23.342;2024-01-30T10:00:45;97374.09;;;5.51;45.22
79077;BME280;68477;42.698;23.342;2024-01-30T10:03:11;97375.09;;;5.79;44.83
79077;BME280;68477;42.698;23.342;2024-01-30T10:05:39;97367.75;;;6.57;41.25
79077;BME280;68477;42.698;23.342;2024-01-30T10:08:06;97368.59;;;5.26;43.27
79077;BME280;68477;42.698;23.342;2024-01-30T10:10:35;97363.97;;;5.91;41.99
79077;BME280;68477;42.698;23.342;2024-01-30T10:13:01;97366.28;;;6.53;42.15
79077;BME280;68477;42.698;23.342;2024-01-30T10:15:28;97365.94;;;6.16;41.27
79077;BME280;68477;42.698;23.342;2024-01-30T10:17:54;97361.53;;;6.02;41.77
79077;BME280;68477;42.698;23.342;2024-01-30T10:20:19;97357.81;;;5.92;41.42
79077;BME280;68477;42.698;23.342;2024-01-30T10:22:49;97360.91;;;6.13;43.27
79077;BME280;68477;42.698;23.342;2024-01-30T10:25:15;97357.59;;;6.52;41.17
79077;BME280;68477;42.698;23.342;2024-01-30T10:27:40;97360.91;;;6.27;42.91
79077;BME280;68477;42.698;23.342;2024-01-30T10:30:07;97357.47;;;5.82;42.76
79077;BME280;68477;42.698;23.342;2024-01-30T10:32:33;97366.03;;;6.00;42.39
79077;BME280;68477;42.698;23.342;2024-01-30T10:34:58;97367.56;;;5.44;42.34
79077;BME280;68477;42.698;23.342;2024-01-30T10:37:25;97358.84;;;5.88;41.20
79077;BME280;68477;42.698;23.342;2024-01-30T10:39:53;97357.38;;;6.84;41.61
79077;BME280;68477;42.698;23.342;2024-01-30T10:42:20;97357.72;;;6.08;40.02
79077;BME280;68477;42.698;23.342;2024-01-30T10:45:06;97366.13;;;6.13;42.95
79077;BME280;68477;42.698;23.342;2024-01-30T10:47:35;97358.59;;;7.32;40.87
79077;BME280;68477;42.698;23.342;2024-01-30T10:50:02;97351.78;;;6.76;40.26
79077;BME280;68477;42.698;23.342;2024-01-30T10:52:29;97350.06;;;6.89;40.85
79077;BME280;68477;42.698;23.342;2024-01-30T10:54:56;97343.94;;;5.76;42.35
79077;BME280;68477;42.698;23.342;2024-01-30T10:57:25;97345.03;;;5.28;41.62
79077;BME280;68477;42.698;23.342;2024-01-30T10:59:51;97341.69;;;5.70;43.40
79077;BME280;68477;42.698;23.342;2024-01-30T11:02:18;97334.88;;;5.07;44.97
79077;BME280;68477;42.698;23.342;2024-01-30T11:04:45;97336.63;;;4.45;45.50
79077;BME280;68477;42.698;23.342;2024-01-30T11:07:18;97329.09;;;5.76;44.05
79077;BME280;68477;42.698;23.342;2024-01-30T11:09:51;97325.41;;;6.52;41.99
79077;BME280;68477;42.698;23.342;2024-01-30T11:12:21;97334.56;;;6.16;42.33
79077;BME280;68477;42.698;23.342;2024-01-30T11:14:48;97326.00;;;7.76;38.93
79077;BME280;68477;42.698;23.342;2024-01-30T11:17:13;97314.47;;;7.53;40.38
79077;BME280;68477;42.698;23.342;2024-01-30T11:19:41;97312.75;;;7.39;39.87
79077;BME280;68477;42.698;23.342;2024-01-30T11:22:08;97320.34;;;6.63;41.52
79077;BME280;68477;42.698;23.342;2024-01-30T11:24:40;97325.44;;;6.09;42.65
79077;BME280;68477;42.698;23.342;2024-01-30T11:27:10;97319.25;;;6.10;41.87
79077;BME280;68477;42.698;23.342;2024-01-30T11:29:35;97320.47;;;5.16;45.77
79077;BME280;68477;42.698;23.342;2024-01-30T11:32:02;97304.31;;;5.25;43.69
79077;BME280;68477;42.698;23.342;2024-01-30T11:34:27;97317.78;;;5.17;45.18
79077;BME280;68477;42.698;23.342;2024-01-30T11:36:57;97318.19;;;4.80;46.27
79077;BME280;68477;42.698;23.342;2024-01-30T11:39:27;97319.09;;;5.10;45.21
79077;BME280;68477;42.698;23.342;2024-01-30T11:41:53;97315.22;;;4.86;44.33
79077;BME280;68477;42.698;23.342;2024-01-30T11:44:22;97314.25;;;4.88;45.23
79077;BME280;68477;42.698;23.342;2024-01-30T11:46:48;97309.63;;;5.23;43.51
79077;BME280;68477;42.698;23.342;2024-01-30T11:49:17;97311.53;;;5.94;42.76
79077;BME280;68477;42.698;23.342;2024-01-30T11:51:43;97318.88;;;4.67;45.05
79077;BME280;68477;42.698;23.342;2024-01-30T11:54:08;97312.91;;;5.41;43.54
79077;BME280;68477;42.698;23.342;2024-01-30T11:56:34;97312.50;;;4.57;44.99
79077;BME280;68477;42.698;23.342;2024-01-30T11:59:01;97305.09;;;6.00;42.81
79077;BME280;68477;42.698;23.342;2024-01-30T12:01:29;97297.50;;;8.71;37.64
79077;BME280;68477;42.698;23.342;2024-01-30T12:03:56;97296.13;;;7.78;37.21
79077;BME280;68477;42.698;23.342;2024-01-30T12:06:23;97283.25;;;7.37;38.86
79077;BME280;68477;42.698;23.342;2024-01-30T12:08:59;97273.41;;;8.04;37.77
79077;BME280;68477;42.698;23.342;2024-01-30T12:11:25;97272.88;;;7.48;39.79
79077;BME280;68477;42.698;23.342;2024-01-30T12:13:52;97275.06;;;7.93;38.10
79077;BME280;68477;42.698;23.342;2024-01-30T12:16:18;97275.25;;;8.40;38.24
79077;BME280;68477;42.698;23.342;2024-01-30T12:18:44;97263.53;;;9.75;34.26
79077;BME280;68477;42.698;23.342;2024-01-30T12:21:09;97262.56;;;9.19;35.60
79077;BME280;68477;42.698;23.342;2024-01-30T12:23:35;97252.66;;;10.02;34.50
79077;BME280;68477;42.698;23.342;2024-01-30T12:26:01;97265.63;;;8.89;35.65
79077;BME280;68477;42.698;23.342;2024-01-30T12:28:29;97260.38;;;8.89;35.71
79077;BME280;68477;42.698;23.342;2024-01-30T12:31:01;97259.00;;;8.23;36.11
79077;BME280;68477;42.698;23.342;2024-01-30T12:33:28;97262.47;;;8.96;35.57
79077;BME280;68477;42.698;23.342;2024-01-30T12:35:54;97256.41;;;10.22;33.89
79077;BME280;68477;42.698;23.342;2024-01-30T12:38:20;97248.81;;;9.26;34.70
79077;BME280;68477;42.698;23.342;2024-01-30T12:40:45;97251.84;;;9.33;35.69
79077;BME280;68477;42.698;23.342;2024-01-30T12:43:13;97255.38;;;9.21;34.21
79077;BME280;68477;42.698;23.342;2024-01-30T12:45:39;97248.53;;;8.10;35.38
79077;BME280;68477;42.698;23.342;2024-01-30T12:48:05;97251.97;;;8.72;35.08
79077;BME280;68477;42.698;23.342;2024-01-30T12:50:30;97242.66;;;8.19;35.71